Главная страница
METAR-TAF:

METAR-TAF

Аэропорты :

King Mswati III International Airport

Манзини, Свазиленд

широта: 26-21-24S, долгота: 031-43-01E, высота над уровнем моря: 324 м

Текущие метеонаблюдения

Эта сводка был подготовлена 2 часа и 23 минут назад, в 18:00 UTC
Ветер 6 Узел от северо-восточный, изменяющийся между северный и восточно-северо-восточный
Температура 26°C
Влажность 65%
Давление 1010 hPa
Видимость 10 км и более
Нет облачности ниже 1500 м, и нет кучево-дождевой облачности

METAR: FDSK 041800Z 04006KT 010V070 CAVOK 26/19 Q1010 NOSIG

Время: 22:23 (20:23 UTC)

Прогноз

Эта сводка был подготовлена 10 часа и 23 минут назад, в 10:00 UTC
Прогноз действительный с 04-го 12 UTC до 04-го 21 UTC
Ветер 13 Узел от северный
Видимость 10 км и более
Отдельные облака на высоте 3500 фута

TAF: FDSK 041000Z 0412/0421 01013KT 9999 SCT035

Метеонаблюдения и прогнозы для более 4000 аэропортов (сводки METAR и TAF).

Имеющиеся станции представлены на карте желтыми и красными точками.

Чтобы увидеть название станции, наведите на нее мышь.

Затем щелкните, чтобы увидеть метеонаблюдения и метеопрогнозы.

Управление картой: чтобы увеличить масштаб, щелкните зеленые кнопки с черным крестиком; чтобы уменьшить масштаб, щелкните зеленую кнопку с тире; для просмотра соседних карт щелкайте зеленые стрелки.


METAR-TAF: